sensor_id;sensor_type;location;lat;lon;timestamp;temperature;humidity
59148;DHT22;44930;52.878;6.168;2022-11-27T00:01:17;6.80;99.90
59148;DHT22;44930;52.878;6.168;2022-11-27T00:03:43;6.70;99.90
59148;DHT22;44930;52.878;6.168;2022-11-27T00:06:12;6.70;99.90
59148;DHT22;44930;52.878;6.168;2022-11-27T00:08:40;6.70;99.90
59148;DHT22;44930;52.878;6.168;2022-11-27T00:11:08;6.60;99.90
59148;DHT22;44930;52.878;6.168;2022-11-27T00:13:34;6.60;99.90
59148;DHT22;44930;52.878;6.168;2022-11-27T00:16:00;6.60;99.90
59148;DHT22;44930;52.878;6.168;2022-11-27T00:18:25;6.70;99.90
59148;DHT22;44930;52.878;6.168;2022-11-27T00:20:51;6.70;99.90
59148;DHT22;44930;52.878;6.168;2022-11-27T00:23:16;6.80;99.90
59148;DHT22;44930;52.878;6.168;2022-11-27T00:25:49;6.70;99.90
59148;DHT22;44930;52.878;6.168;2022-11-27T00:28:15;6.60;99.90
59148;DHT22;44930;52.878;6.168;2022-11-27T00:30:40;6.70;99.90
59148;DHT22;44930;52.878;6.168;2022-11-27T00:35:32;6.70;99.90
59148;DHT22;44930;52.878;6.168;2022-11-27T00:37:57;6.60;99.90
59148;DHT22;44930;52.878;6.168;2022-11-27T00:40:23;6.60;99.90
59148;DHT22;44930;52.878;6.168;2022-11-27T00:42:49;6.60;99.90
59148;DHT22;44930;52.878;6.168;2022-11-27T00:45:14;6.60;99.90
59148;DHT22;44930;52.878;6.168;2022-11-27T00:47:40;6.60;99.90
59148;DHT22;44930;52.878;6.168;2022-11-27T00:50:06;6.40;99.90
59148;DHT22;44930;52.878;6.168;2022-11-27T00:52:31;6.50;99.90
59148;DHT22;44930;52.878;6.168;2022-11-27T00:54:57;6.40;99.90
59148;DHT22;44930;52.878;6.168;2022-11-27T00:57:22;6.40;99.90
59148;DHT22;44930;52.878;6.168;2022-11-27T00:59:49;6.60;99.90
59148;DHT22;44930;52.878;6.168;2022-11-27T01:02:14;6.60;99.90
59148;DHT22;44930;52.878;6.168;2022-11-27T01:04:40;6.60;99.90
59148;DHT22;44930;52.878;6.168;2022-11-27T01:07:05;6.70;99.90
59148;DHT22;44930;52.878;6.168;2022-11-27T01:09:31;6.40;99.90
59148;DHT22;44930;52.878;6.168;2022-11-27T01:11:57;6.50;99.90
59148;DHT22;44930;52.878;6.168;2022-11-27T01:14:22;6.50;99.90
59148;DHT22;44930;52.878;6.168;2022-11-27T01:16:48;6.50;99.90
59148;DHT22;44930;52.878;6.168;2022-11-27T01:19:13;6.40;99.90
59148;DHT22;44930;52.878;6.168;2022-11-27T01:21:40;6.50;99.90
59148;DHT22;44930;52.878;6.168;2022-11-27T01:24:06;6.40;99.90
59148;DHT22;44930;52.878;6.168;2022-11-27T01:26:32;6.40;99.90
59148;DHT22;44930;52.878;6.168;2022-11-27T01:28:58;6.40;99.90
59148;DHT22;44930;52.878;6.168;2022-11-27T01:31:30;6.30;99.90
59148;DHT22;44930;52.878;6.168;2022-11-27T01:34:07;6.30;99.90
59148;DHT22;44930;52.878;6.168;2022-11-27T01:36:34;6.30;99.90
59148;DHT22;44930;52.878;6.168;2022-11-27T01:39:00;6.30;99.90
59148;DHT22;44930;52.878;6.168;2022-11-27T01:41:36;6.40;99.90
59148;DHT22;44930;52.878;6.168;2022-11-27T01:46:53;6.30;99.90
59148;DHT22;44930;52.878;6.168;2022-11-27T01:49:33;6.60;99.90
59148;DHT22;44930;52.878;6.168;2022-11-27T01:52:04;6.30;99.90
59148;DHT22;44930;52.878;6.168;2022-11-27T01:54:41;6.30;99.90
59148;DHT22;44930;52.878;6.168;2022-11-27T01:57:21;6.20;99.90
59148;DHT22;44930;52.878;6.168;2022-11-27T01:59:48;6.20;99.90
59148;DHT22;44930;52.878;6.168;2022-11-27T02:02:15;6.10;99.90
59148;DHT22;44930;52.878;6.168;2022-11-27T02:07:07;6.00;99.90
59148;DHT22;44930;52.878;6.168;2022-11-27T02:09:32;6.20;99.90
59148;DHT22;44930;52.878;6.168;2022-11-27T02:17:27;6.30;99.90
59148;DHT22;44930;52.878;6.168;2022-11-27T02:20:07;6.20;99.90
59148;DHT22;44930;52.878;6.168;2022-11-27T02:25:29;6.20;99.90
59148;DHT22;44930;52.878;6.168;2022-11-27T02:30:51;6.30;99.90
59148;DHT22;44930;52.878;6.168;2022-11-27T02:33:19;6.10;99.90
59148;DHT22;44930;52.878;6.168;2022-11-27T02:35:56;6.20;99.90
59148;DHT22;44930;52.878;6.168;2022-11-27T02:38:31;6.10;99.90
59148;DHT22;44930;52.878;6.168;2022-11-27T02:41:04;5.90;99.90
59148;DHT22;44930;52.878;6.168;2022-11-27T02:43:37;6.10;99.90
59148;DHT22;44930;52.878;6.168;2022-11-27T02:46:05;5.90;99.90
59148;DHT22;44930;52.878;6.168;2022-11-27T02:48:46;6.00;99.90
59148;DHT22;44930;52.878;6.168;2022-11-27T02:51:14;6.10;99.90
59148;DHT22;44930;52.878;6.168;2022-11-27T02:53:47;6.00;99.90
59148;DHT22;44930;52.878;6.168;2022-11-27T02:56:16;6.00;99.90
59148;DHT22;44930;52.878;6.168;2022-11-27T02:58:45;5.80;99.90
59148;DHT22;44930;52.878;6.168;2022-11-27T03:01:13;5.90;99.90
59148;DHT22;44930;52.878;6.168;2022-11-27T03:03:43;6.10;99.90
59148;DHT22;44930;52.878;6.168;2022-11-27T03:11:14;5.80;99.90
59148;DHT22;44930;52.878;6.168;2022-11-27T03:13:44;5.90;99.90
59148;DHT22;44930;52.878;6.168;2022-11-27T03:16:29;6.20;99.90
59148;DHT22;44930;52.878;6.168;2022-11-27T03:21:39;5.90;99.90
59148;DHT22;44930;52.878;6.168;2022-11-27T03:24:09;6.00;99.90
59148;DHT22;44930;52.878;6.168;2022-11-27T03:26:37;6.00;99.90
59148;DHT22;44930;52.878;6.168;2022-11-27T03:29:07;6.10;99.90
59148;DHT22;44930;52.878;6.168;2022-11-27T03:31:34;6.10;99.90
59148;DHT22;44930;52.878;6.168;2022-11-27T03:34:00;6.10;99.90
59148;DHT22;44930;52.878;6.168;2022-11-27T03:36:26;6.10;99.90
59148;DHT22;44930;52.878;6.168;2022-11-27T03:38:52;6.20;99.90
59148;DHT22;44930;52.878;6.168;2022-11-27T03:44:34;6.40;99.90
59148;DHT22;44930;52.878;6.168;2022-11-27T03:56:30;6.10;99.90
59148;DHT22;44930;52.878;6.168;2022-11-27T03:59:23;6.00;99.90
59148;DHT22;44930;52.878;6.168;2022-11-27T04:01:46;6.20;99.90
59148;DHT22;44930;52.878;6.168;2022-11-27T04:06:38;6.20;99.90
59148;DHT22;44930;52.878;6.168;2022-11-27T04:09:04;6.20;99.90
59148;DHT22;44930;52.878;6.168;2022-11-27T04:11:30;6.10;99.90
59148;DHT22;44930;52.878;6.168;2022-11-27T04:13:55;6.20;99.90
59148;DHT22;44930;52.878;6.168;2022-11-27T04:16:21;6.20;99.90
59148;DHT22;44930;52.878;6.168;2022-11-27T04:18:47;6.20;99.90
59148;DHT22;44930;52.878;6.168;2022-11-27T04:21:12;6.20;99.90
59148;DHT22;44930;52.878;6.168;2022-11-27T04:23:38;6.20;99.90
59148;DHT22;44930;52.878;6.168;2022-11-27T04:26:05;6.20;99.90
59148;DHT22;44930;52.878;6.168;2022-11-27T04:28:30;6.30;99.90
59148;DHT22;44930;52.878;6.168;2022-11-27T04:30:56;6.20;99.90
59148;DHT22;44930;52.878;6.168;2022-11-27T04:33:22;6.20;99.90
59148;DHT22;44930;52.878;6.168;2022-11-27T04:35:49;6.10;99.90
59148;DHT22;44930;52.878;6.168;2022-11-27T04:38:14;6.20;99.90
59148;DHT22;44930;52.878;6.168;2022-11-27T04:40:40;6.20;99.90
59148;DHT22;44930;52.878;6.168;2022-11-27T04:43:05;6.10;99.90
59148;DHT22;44930;52.878;6.168;2022-11-27T04:45:31;6.20;99.90
59148;DHT22;44930;52.878;6.168;2022-11-27T04:47:56;6.20;99.90
59148;DHT22;44930;52.878;6.168;2022-11-27T04:50:22;6.00;99.90
59148;DHT22;44930;52.878;6.168;2022-11-27T04:52:48;6.20;99.90
59148;DHT22;44930;52.878;6.168;2022-11-27T04:57:39;6.20;99.90
59148;DHT22;44930;52.878;6.168;2022-11-27T05:02:31;6.40;99.90
59148;DHT22;44930;52.878;6.168;2022-11-27T05:04:57;6.40;99.90
59148;DHT22;44930;52.878;6.168;2022-11-27T05:07:22;6.20;99.90
59148;DHT22;44930;52.878;6.168;2022-11-27T05:09:48;6.30;99.90
59148;DHT22;44930;52.878;6.168;2022-11-27T05:12:13;6.30;99.90
59148;DHT22;44930;52.878;6.168;2022-11-27T05:14:39;6.30;99.90
59148;DHT22;44930;52.878;6.168;2022-11-27T05:17:04;6.40;99.90
59148;DHT22;44930;52.878;6.168;2022-11-27T05:19:30;6.40;99.90
59148;DHT22;44930;52.878;6.168;2022-11-27T05:21:56;6.30;99.90
59148;DHT22;44930;52.878;6.168;2022-11-27T05:24:24;6.30;99.90
59148;DHT22;44930;52.878;6.168;2022-11-27T05:26:50;6.30;99.90
59148;DHT22;44930;52.878;6.168;2022-11-27T05:29:17;6.30;99.90
59148;DHT22;44930;52.878;6.168;2022-11-27T05:31:43;6.30;99.90
59148;DHT22;44930;52.878;6.168;2022-11-27T05:34:11;6.40;99.90
59148;DHT22;44930;52.878;6.168;2022-11-27T05:36:37;6.20;99.90
59148;DHT22;44930;52.878;6.168;2022-11-27T05:39:04;6.40;99.90
59148;DHT22;44930;52.878;6.168;2022-11-27T05:41:32;6.30;99.90
59148;DHT22;44930;52.878;6.168;2022-11-27T05:43:57;6.30;99.90
59148;DHT22;44930;52.878;6.168;2022-11-27T05:46:23;6.40;99.90
59148;DHT22;44930;52.878;6.168;2022-11-27T05:48:48;6.40;99.90
59148;DHT22;44930;52.878;6.168;2022-11-27T05:51:15;6.30;99.90
59148;DHT22;44930;52.878;6.168;2022-11-27T05:53:41;6.50;99.90
59148;DHT22;44930;52.878;6.168;2022-11-27T05:56:10;6.30;99.90
59148;DHT22;44930;52.878;6.168;2022-11-27T05:58:37;6.40;99.90
59148;DHT22;44930;52.878;6.168;2022-11-27T06:03:30;6.30;99.90
59148;DHT22;44930;52.878;6.168;2022-11-27T06:05:56;6.20;99.90
59148;DHT22;44930;52.878;6.168;2022-11-27T06:08:22;6.30;99.90
59148;DHT22;44930;52.878;6.168;2022-11-27T06:10:48;6.30;99.90
59148;DHT22;44930;52.878;6.168;2022-11-27T06:13:14;6.30;99.90
59148;DHT22;44930;52.878;6.168;2022-11-27T06:15:40;6.30;99.90
59148;DHT22;44930;52.878;6.168;2022-11-27T06:18:06;6.20;99.90
59148;DHT22;44930;52.878;6.168;2022-11-27T06:20:32;6.30;99.90
59148;DHT22;44930;52.878;6.168;2022-11-27T06:22:58;6.30;99.90
59148;DHT22;44930;52.878;6.168;2022-11-27T06:27:49;6.30;99.90
59148;DHT22;44930;52.878;6.168;2022-11-27T06:30:15;6.30;99.90
59148;DHT22;44930;52.878;6.168;2022-11-27T06:32:40;6.30;99.90
59148;DHT22;44930;52.878;6.168;2022-11-27T06:35:06;6.40;99.90
59148;DHT22;44930;52.878;6.168;2022-11-27T06:37:32;6.20;99.90
59148;DHT22;44930;52.878;6.168;2022-11-27T06:39:58;6.30;99.90
59148;DHT22;44930;52.878;6.168;2022-11-27T06:44:50;6.40;99.90
59148;DHT22;44930;52.878;6.168;2022-11-27T06:47:15;6.60;99.90
59148;DHT22;44930;52.878;6.168;2022-11-27T06:49:41;6.40;99.90
59148;DHT22;44930;52.878;6.168;2022-11-27T06:52:06;6.40;99.90
59148;DHT22;44930;52.878;6.168;2022-11-27T06:54:32;6.40;99.90
59148;DHT22;44930;52.878;6.168;2022-11-27T06:56:57;6.30;99.90
59148;DHT22;44930;52.878;6.168;2022-11-27T06:59:23;6.40;99.90
59148;DHT22;44930;52.878;6.168;2022-11-27T07:01:49;6.40;99.90
59148;DHT22;44930;52.878;6.168;2022-11-27T07:04:15;6.30;99.90
59148;DHT22;44930;52.878;6.168;2022-11-27T07:06:41;6.30;99.90
59148;DHT22;44930;52.878;6.168;2022-11-27T07:09:07;6.40;99.90
59148;DHT22;44930;52.878;6.168;2022-11-27T07:11:33;6.40;99.90
59148;DHT22;44930;52.878;6.168;2022-11-27T07:14:01;6.40;99.90
59148;DHT22;44930;52.878;6.168;2022-11-27T07:16:29;6.40;99.90
59148;DHT22;44930;52.878;6.168;2022-11-27T07:18:59;6.30;99.90
59148;DHT22;44930;52.878;6.168;2022-11-27T07:21:26;6.40;99.90
59148;DHT22;44930;52.878;6.168;2022-11-27T07:23:52;6.30;99.90
59148;DHT22;44930;52.878;6.168;2022-11-27T07:26:20;6.70;99.90
59148;DHT22;44930;52.878;6.168;2022-11-27T07:28:46;6.50;99.90
59148;DHT22;44930;52.878;6.168;2022-11-27T07:31:17;6.50;99.90
59148;DHT22;44930;52.878;6.168;2022-11-27T07:33:43;6.50;99.90
59148;DHT22;44930;52.878;6.168;2022-11-27T07:36:11;6.50;99.90
59148;DHT22;44930;52.878;6.168;2022-11-27T07:38:37;6.30;99.90
59148;DHT22;44930;52.878;6.168;2022-11-27T07:41:04;6.50;99.90
59148;DHT22;44930;52.878;6.168;2022-11-27T07:43:31;6.50;99.90
59148;DHT22;44930;52.878;6.168;2022-11-27T07:45:56;6.50;99.90
59148;DHT22;44930;52.878;6.168;2022-11-27T07:48:22;6.50;99.90
59148;DHT22;44930;52.878;6.168;2022-11-27T07:50:48;6.50;99.90
59148;DHT22;44930;52.878;6.168;2022-11-27T07:53:13;6.50;99.90
59148;DHT22;44930;52.878;6.168;2022-11-27T07:55:40;6.50;99.90
59148;DHT22;44930;52.878;6.168;2022-11-27T07:58:07;6.40;99.90
59148;DHT22;44930;52.878;6.168;2022-11-27T08:02:59;6.30;99.90
59148;DHT22;44930;52.878;6.168;2022-11-27T08:05:25;6.50;99.90
59148;DHT22;44930;52.878;6.168;2022-11-27T08:07:51;6.60;99.90
59148;DHT22;44930;52.878;6.168;2022-11-27T08:10:16;6.50;99.90
59148;DHT22;44930;52.878;6.168;2022-11-27T08:12:42;6.50;99.90
59148;DHT22;44930;52.878;6.168;2022-11-27T08:15:08;6.60;99.90
59148;DHT22;44930;52.878;6.168;2022-11-27T08:17:34;6.40;99.90
59148;DHT22;44930;52.878;6.168;2022-11-27T08:19:59;6.60;99.90
59148;DHT22;44930;52.878;6.168;2022-11-27T08:22:25;6.60;99.90
59148;DHT22;44930;52.878;6.168;2022-11-27T08:24:50;6.70;99.90
59148;DHT22;44930;52.878;6.168;2022-11-27T08:27:17;6.50;99.90
59148;DHT22;44930;52.878;6.168;2022-11-27T08:29:42;6.60;99.90
59148;DHT22;44930;52.878;6.168;2022-11-27T08:32:08;6.60;99.90
59148;DHT22;44930;52.878;6.168;2022-11-27T08:34:34;6.60;99.90
59148;DHT22;44930;52.878;6.168;2022-11-27T08:37:00;6.60;99.90
59148;DHT22;44930;52.878;6.168;2022-11-27T08:39:25;6.60;99.90
59148;DHT22;44930;52.878;6.168;2022-11-27T08:41:52;6.60;99.90
59148;DHT22;44930;52.878;6.168;2022-11-27T08:44:18;6.70;99.90
59148;DHT22;44930;52.878;6.168;2022-11-27T08:46:44;6.60;99.90
59148;DHT22;44930;52.878;6.168;2022-11-27T08:49:09;6.60;99.90
59148;DHT22;44930;52.878;6.168;2022-11-27T08:51:35;6.60;99.90
59148;DHT22;44930;52.878;6.168;2022-11-27T08:54:01;6.20;99.90
59148;DHT22;44930;52.878;6.168;2022-11-27T08:56:27;6.70;99.90
59148;DHT22;44930;52.878;6.168;2022-11-27T08:58:52;6.60;99.90
59148;DHT22;44930;52.878;6.168;2022-11-27T09:03:46;6.70;99.90
59148;DHT22;44930;52.878;6.168;2022-11-27T09:06:14;6.70;99.90
59148;DHT22;44930;52.878;6.168;2022-11-27T09:08:41;6.60;99.90
59148;DHT22;44930;52.878;6.168;2022-11-27T09:11:08;6.60;99.90
59148;DHT22;44930;52.878;6.168;2022-11-27T09:13:35;6.50;99.90
59148;DHT22;44930;52.878;6.168;2022-11-27T09:16:05;6.80;99.90
59148;DHT22;44930;52.878;6.168;2022-11-27T09:18:31;6.60;99.90
59148;DHT22;44930;52.878;6.168;2022-11-27T09:21:01;6.40;99.90
59148;DHT22;44930;52.878;6.168;2022-11-27T09:23:27;6.50;99.90
59148;DHT22;44930;52.878;6.168;2022-11-27T09:25:53;6.60;99.90
59148;DHT22;44930;52.878;6.168;2022-11-27T09:28:19;6.50;99.90
59148;DHT22;44930;52.878;6.168;2022-11-27T09:30:45;6.40;99.90
59148;DHT22;44930;52.878;6.168;2022-11-27T09:33:10;6.50;99.90
59148;DHT22;44930;52.878;6.168;2022-11-27T09:35:37;6.50;99.90
59148;DHT22;44930;52.878;6.168;2022-11-27T09:38:02;6.50;99.90
59148;DHT22;44930;52.878;6.168;2022-11-27T09:40:28;6.40;99.90
59148;DHT22;44930;52.878;6.168;2022-11-27T09:43:04;6.30;99.90
59148;DHT22;44930;52.878;6.168;2022-11-27T09:45:41;6.40;99.90
59148;DHT22;44930;52.878;6.168;2022-11-27T09:48:11;6.40;99.90
59148;DHT22;44930;52.878;6.168;2022-11-27T09:50:43;6.50;99.90
59148;DHT22;44930;52.878;6.168;2022-11-27T09:53:42;6.40;99.90
59148;DHT22;44930;52.878;6.168;2022-11-27T09:56:12;6.40;99.90
59148;DHT22;44930;52.878;6.168;2022-11-27T09:58:46;6.40;99.90
59148;DHT22;44930;52.878;6.168;2022-11-27T10:01:20;6.50;99.90
59148;DHT22;44930;52.878;6.168;2022-11-27T10:03:47;6.40;99.90
59148;DHT22;44930;52.878;6.168;2022-11-27T10:06:48;6.50;99.90
59148;DHT22;44930;52.878;6.168;2022-11-27T10:09:24;6.50;99.90
59148;DHT22;44930;52.878;6.168;2022-11-27T10:25:45;6.80;99.90
59148;DHT22;44930;52.878;6.168;2022-11-27T10:31:17;6.60;99.90
59148;DHT22;44930;52.878;6.168;2022-11-27T10:33:53;6.50;99.90
59148;DHT22;44930;52.878;6.168;2022-11-27T10:36:35;6.70;99.90
59148;DHT22;44930;52.878;6.168;2022-11-27T10:41:33;7.00;99.90
59148;DHT22;44930;52.878;6.168;2022-11-27T10:46:44;6.60;99.90
59148;DHT22;44930;52.878;6.168;2022-11-27T10:49:10;6.70;99.90
59148;DHT22;44930;52.878;6.168;2022-11-27T10:51:36;6.70;99.90
59148;DHT22;44930;52.878;6.168;2022-11-27T10:59:18;6.70;99.90
59148;DHT22;44930;52.878;6.168;2022-11-27T11:01:49;6.60;99.90
59148;DHT22;44930;52.878;6.168;2022-11-27T11:04:25;6.40;99.90
59148;DHT22;44930;52.878;6.168;2022-11-27T11:06:51;6.70;99.90
59148;DHT22;44930;52.878;6.168;2022-11-27T11:09:33;6.70;99.90
59148;DHT22;44930;52.878;6.168;2022-11-27T11:12:14;6.70;99.90
59148;DHT22;44930;52.878;6.168;2022-11-27T11:17:16;6.70;99.90
59148;DHT22;44930;52.878;6.168;2022-11-27T11:19:42;6.40;99.90
59148;DHT22;44930;52.878;6.168;2022-11-27T11:22:14;6.50;99.90
59148;DHT22;44930;52.878;6.168;2022-11-27T11:24:46;6.70;99.90
59148;DHT22;44930;52.878;6.168;2022-11-27T11:27:18;6.50;99.90
59148;DHT22;44930;52.878;6.168;2022-11-27T11:35:03;6.70;99.90
59148;DHT22;44930;52.878;6.168;2022-11-27T11:37:38;6.80;99.90
59148;DHT22;44930;52.878;6.168;2022-11-27T11:42:51;6.90;99.90
59148;DHT22;44930;52.878;6.168;2022-11-27T11:45:19;6.80;99.90
59148;DHT22;44930;52.878;6.168;2022-11-27T11:47:46;6.80;99.90
59148;DHT22;44930;52.878;6.168;2022-11-27T11:50:26;6.80;99.90
59148;DHT22;44930;52.878;6.168;2022-11-27T11:53:04;6.80;99.90
59148;DHT22;44930;52.878;6.168;2022-11-27T11:55:45;6.90;99.90
59148;DHT22;44930;52.878;6.168;2022-11-27T12:04:01;6.90;99.90
59148;DHT22;44930;52.878;6.168;2022-11-27T12:23:37;6.50;99.90
59148;DHT22;44930;52.878;6.168;2022-11-27T12:29:20;6.90;99.90
59148;DHT22;44930;52.878;6.168;2022-11-27T12:34:58;6.90;99.90
59148;DHT22;44930;52.878;6.168;2022-11-27T12:40:34;7.10;99.90
59148;DHT22;44930;52.878;6.168;2022-11-27T12:43:09;7.00;99.90
59148;DHT22;44930;52.878;6.168;2022-11-27T12:45:45;7.00;99.90
59148;DHT22;44930;52.878;6.168;2022-11-27T12:48:30;6.90;99.90
59148;DHT22;44930;52.878;6.168;2022-11-27T12:51:11;7.10;99.90
59148;DHT22;44930;52.878;6.168;2022-11-27T12:53:51;7.00;99.90
59148;DHT22;44930;52.878;6.168;2022-11-27T12:59:01;6.60;99.90
59148;DHT22;44930;52.878;6.168;2022-11-27T13:01:34;7.00;99.90
59148;DHT22;44930;52.878;6.168;2022-11-27T13:07:11;6.70;99.90
59148;DHT22;44930;52.878;6.168;2022-11-27T13:10:11;6.90;99.90
59148;DHT22;44930;52.878;6.168;2022-11-27T13:12:45;6.70;99.90
59148;DHT22;44930;52.878;6.168;2022-11-27T13:15:25;7.40;99.90
59148;DHT22;44930;52.878;6.168;2022-11-27T13:17:59;6.90;99.90
59148;DHT22;44930;52.878;6.168;2022-11-27T13:20:33;7.10;99.90
59148;DHT22;44930;52.878;6.168;2022-11-27T13:23:01;7.00;99.90
59148;DHT22;44930;52.878;6.168;2022-11-27T13:25:27;6.90;99.90
59148;DHT22;44930;52.878;6.168;2022-11-27T13:30:25;6.80;99.90
59148;DHT22;44930;52.878;6.168;2022-11-27T13:32:58;7.20;99.90
59148;DHT22;44930;52.878;6.168;2022-11-27T13:35:29;7.00;99.90
59148;DHT22;44930;52.878;6.168;2022-11-27T13:40:43;6.90;99.90
59148;DHT22;44930;52.878;6.168;2022-11-27T13:43:21;6.70;99.90
59148;DHT22;44930;52.878;6.168;2022-11-27T13:46:02;7.00;99.90
59148;DHT22;44930;52.878;6.168;2022-11-27T13:50:57;7.20;99.90
59148;DHT22;44930;52.878;6.168;2022-11-27T13:53:32;6.80;99.90
59148;DHT22;44930;52.878;6.168;2022-11-27T13:55:58;6.80;99.90
59148;DHT22;44930;52.878;6.168;2022-11-27T13:58:42;6.90;99.90
59148;DHT22;44930;52.878;6.168;2022-11-27T14:01:21;6.90;99.90
59148;DHT22;44930;52.878;6.168;2022-11-27T14:03:48;6.90;99.90
59148;DHT22;44930;52.878;6.168;2022-11-27T14:06:34;6.90;99.90
59148;DHT22;44930;52.878;6.168;2022-11-27T14:09:05;6.80;99.90
59148;DHT22;44930;52.878;6.168;2022-11-27T14:14:01;6.50;99.90
59148;DHT22;44930;52.878;6.168;2022-11-27T14:16:34;6.80;99.90
59148;DHT22;44930;52.878;6.168;2022-11-27T14:19:02;6.60;99.90
59148;DHT22;44930;52.878;6.168;2022-11-27T14:24:02;6.90;99.90
59148;DHT22;44930;52.878;6.168;2022-11-27T14:26:31;6.80;99.90
59148;DHT22;44930;52.878;6.168;2022-11-27T14:28:58;6.80;99.90
59148;DHT22;44930;52.878;6.168;2022-11-27T14:31:29;6.80;99.90
59148;DHT22;44930;52.878;6.168;2022-11-27T14:33:55;6.80;99.90
59148;DHT22;44930;52.878;6.168;2022-11-27T14:36:29;7.00;99.90
59148;DHT22;44930;52.878;6.168;2022-11-27T14:39:02;6.80;99.90
59148;DHT22;44930;52.878;6.168;2022-11-27T14:41:28;6.80;99.90
59148;DHT22;44930;52.878;6.168;2022-11-27T14:44:13;6.50;99.90
59148;DHT22;44930;52.878;6.168;2022-11-27T14:46:39;6.80;99.90
59148;DHT22;44930;52.878;6.168;2022-11-27T14:49:05;6.80;99.90
59148;DHT22;44930;52.878;6.168;2022-11-27T14:54:10;6.70;99.90
59148;DHT22;44930;52.878;6.168;2022-11-27T14:56:41;6.90;99.90
59148;DHT22;44930;52.878;6.168;2022-11-27T14:59:18;7.10;99.90
59148;DHT22;44930;52.878;6.168;2022-11-27T15:01:46;6.80;99.90
59148;DHT22;44930;52.878;6.168;2022-11-27T15:04:37;6.70;99.90
59148;DHT22;44930;52.878;6.168;2022-11-27T15:07:16;6.80;99.90
59148;DHT22;44930;52.878;6.168;2022-11-27T15:09:44;6.80;99.90
59148;DHT22;44930;52.878;6.168;2022-11-27T15:14:59;6.70;99.90
59148;DHT22;44930;52.878;6.168;2022-11-27T15:19:56;6.70;99.90
59148;DHT22;44930;52.878;6.168;2022-11-27T15:22:23;6.80;99.90
59148;DHT22;44930;52.878;6.168;2022-11-27T15:24:58;6.80;99.90
59148;DHT22;44930;52.878;6.168;2022-11-27T15:27:24;6.80;99.90
59148;DHT22;44930;52.878;6.168;2022-11-27T15:32:21;6.80;99.90
59148;DHT22;44930;52.878;6.168;2022-11-27T15:34:49;6.80;99.90
59148;DHT22;44930;52.878;6.168;2022-11-27T15:37:24;6.70;99.90
59148;DHT22;44930;52.878;6.168;2022-11-27T15:39:55;6.40;99.90
59148;DHT22;44930;52.878;6.168;2022-11-27T15:42:22;6.90;99.90
59148;DHT22;44930;52.878;6.168;2022-11-27T15:49:54;6.80;99.90
59148;DHT22;44930;52.878;6.168;2022-11-27T15:52:19;6.80;99.90
59148;DHT22;44930;52.878;6.168;2022-11-27T15:54:45;6.80;99.90
59148;DHT22;44930;52.878;6.168;2022-11-27T15:57:11;6.70;99.90
59148;DHT22;44930;52.878;6.168;2022-11-27T15:59:37;6.70;99.90
59148;DHT22;44930;52.878;6.168;2022-11-27T16:02:03;6.70;99.90
59148;DHT22;44930;52.878;6.168;2022-11-27T16:04:28;6.80;99.90
59148;DHT22;44930;52.878;6.168;2022-11-27T16:06:55;6.80;99.90
59148;DHT22;44930;52.878;6.168;2022-11-27T16:09:20;6.90;99.90
59148;DHT22;44930;52.878;6.168;2022-11-27T16:14:12;6.80;99.90
59148;DHT22;44930;52.878;6.168;2022-11-27T16:16:38;6.80;99.90
59148;DHT22;44930;52.878;6.168;2022-11-27T16:21:32;6.80;99.90
59148;DHT22;44930;52.878;6.168;2022-11-27T16:23:59;6.80;99.90
59148;DHT22;44930;52.878;6.168;2022-11-27T16:26:27;6.90;99.90
59148;DHT22;44930;52.878;6.168;2022-11-27T16:28:53;6.90;99.90
59148;DHT22;44930;52.878;6.168;2022-11-27T16:33:45;6.90;99.90
59148;DHT22;44930;52.878;6.168;2022-11-27T16:36:13;6.90;99.90
59148;DHT22;44930;52.878;6.168;2022-11-27T16:38:39;6.90;99.90
59148;DHT22;44930;52.878;6.168;2022-11-27T16:41:07;6.70;99.90
59148;DHT22;44930;52.878;6.168;2022-11-27T16:43:35;6.80;99.90
59148;DHT22;44930;52.878;6.168;2022-11-27T16:46:19;7.00;99.90
59148;DHT22;44930;52.878;6.168;2022-11-27T16:48:45;6.90;99.90
59148;DHT22;44930;52.878;6.168;2022-11-27T16:51:17;7.10;99.90
59148;DHT22;44930;52.878;6.168;2022-11-27T16:53:44;6.90;99.90
59148;DHT22;44930;52.878;6.168;2022-11-27T16:56:12;6.90;99.90
59148;DHT22;44930;52.878;6.168;2022-11-27T16:58:40;7.00;99.90
59148;DHT22;44930;52.878;6.168;2022-11-27T17:01:08;6.90;99.90
59148;DHT22;44930;52.878;6.168;2022-11-27T17:03:34;7.00;99.90
59148;DHT22;44930;52.878;6.168;2022-11-27T17:06:00;6.90;99.90
59148;DHT22;44930;52.878;6.168;2022-11-27T17:08:30;6.90;99.90
59148;DHT22;44930;52.878;6.168;2022-11-27T17:13:22;7.00;99.90
59148;DHT22;44930;52.878;6.168;2022-11-27T17:15:49;7.00;99.90
59148;DHT22;44930;52.878;6.168;2022-11-27T17:18:15;7.00;99.90
59148;DHT22;44930;52.878;6.168;2022-11-27T17:20:41;6.90;99.90
59148;DHT22;44930;52.878;6.168;2022-11-27T17:23:07;7.00;99.90
59148;DHT22;44930;52.878;6.168;2022-11-27T17:25:33;7.00;99.90
59148;DHT22;44930;52.878;6.168;2022-11-27T17:27:58;6.90;99.90
59148;DHT22;44930;52.878;6.168;2022-11-27T17:30:24;7.00;99.90
59148;DHT22;44930;52.878;6.168;2022-11-27T17:32:49;6.90;99.90
59148;DHT22;44930;52.878;6.168;2022-11-27T17:35:15;6.90;99.90
59148;DHT22;44930;52.878;6.168;2022-11-27T17:37:41;7.00;99.90
59148;DHT22;44930;52.878;6.168;2022-11-27T17:40:08;7.00;99.90
59148;DHT22;44930;52.878;6.168;2022-11-27T17:42:34;7.10;99.90
59148;DHT22;44930;52.878;6.168;2022-11-27T17:44:59;7.00;99.90
59148;DHT22;44930;52.878;6.168;2022-11-27T17:47:25;7.00;99.90
59148;DHT22;44930;52.878;6.168;2022-11-27T17:49:51;6.90;99.90
59148;DHT22;44930;52.878;6.168;2022-11-27T17:52:16;7.10;99.90
59148;DHT22;44930;52.878;6.168;2022-11-27T17:54:42;7.00;99.90
59148;DHT22;44930;52.878;6.168;2022-11-27T17:57:07;6.90;99.90
59148;DHT22;44930;52.878;6.168;2022-11-27T17:59:33;7.00;99.90
59148;DHT22;44930;52.878;6.168;2022-11-27T18:01:58;6.90;99.90
59148;DHT22;44930;52.878;6.168;2022-11-27T18:04:24;6.90;99.90
59148;DHT22;44930;52.878;6.168;2022-11-27T18:06:49;6.90;99.90
59148;DHT22;44930;52.878;6.168;2022-11-27T18:09:15;7.00;99.90
59148;DHT22;44930;52.878;6.168;2022-11-27T18:11:41;6.90;99.90
59148;DHT22;44930;52.878;6.168;2022-11-27T18:14:06;6.90;99.90
59148;DHT22;44930;52.878;6.168;2022-11-27T18:16:35;7.00;99.90
59148;DHT22;44930;52.878;6.168;2022-11-27T18:19:06;6.90;99.90
59148;DHT22;44930;52.878;6.168;2022-11-27T18:21:32;6.70;99.90
59148;DHT22;44930;52.878;6.168;2022-11-27T18:23:58;7.10;99.90
59148;DHT22;44930;52.878;6.168;2022-11-27T18:26:24;6.90;99.90
59148;DHT22;44930;52.878;6.168;2022-11-27T18:28:54;6.70;99.90
59148;DHT22;44930;52.878;6.168;2022-11-27T18:31:20;7.00;99.90
59148;DHT22;44930;52.878;6.168;2022-11-27T18:33:46;6.90;99.90
59148;DHT22;44930;52.878;6.168;2022-11-27T18:36:13;7.00;99.90
59148;DHT22;44930;52.878;6.168;2022-11-27T18:38:40;7.00;99.90
59148;DHT22;44930;52.878;6.168;2022-11-27T18:41:14;7.00;99.90
59148;DHT22;44930;52.878;6.168;2022-11-27T18:43:41;6.90;99.90
59148;DHT22;44930;52.878;6.168;2022-11-27T18:48:34;6.90;99.90